createdAt,value
2023-02-04T00:00:11.153Z,101871.56
2023-02-04T00:03:12.985Z,101878.59
2023-02-04T00:06:14.355Z,101877.69
2023-02-04T00:09:16.393Z,101872.44
2023-02-04T00:12:17.799Z,101875.06
2023-02-04T00:15:19.195Z,101876.81
2023-02-04T00:18:22.084Z,101882.06
2023-02-04T00:21:23.576Z,101883.78
2023-02-04T00:24:25.051Z,101893.34
2023-02-04T00:27:26.492Z,101894.25
2023-02-04T00:30:28.182Z,101899.50
2023-02-04T00:33:29.757Z,101914.41
2023-02-04T00:36:31.152Z,101899.41
2023-02-04T00:39:32.658Z,101905.53
2023-02-04T00:42:34.029Z,101918.72
2023-02-04T00:45:35.445Z,101921.44
2023-02-04T00:48:36.949Z,101916.16
2023-02-04T00:51:40.074Z,101918.75
2023-02-04T00:54:41.477Z,101924.91
2023-02-04T00:57:43.000Z,101914.38
2023-02-04T01:00:44.539Z,101919.72
2023-02-04T01:03:45.942Z,101922.28
2023-02-04T01:06:47.329Z,101917.91
2023-02-04T01:09:48.755Z,101921.47
2023-02-04T01:12:50.145Z,101919.72
2023-02-04T01:15:52.702Z,101927.59
2023-02-04T01:18:55.840Z,101924.09
2023-02-04T01:21:58.962Z,101922.38
2023-02-04T01:25:00.412Z,101932.03
2023-02-04T01:28:15.233Z,101939.94
2023-02-04T01:31:17.420Z,101939.91
2023-02-04T01:34:18.887Z,101942.50
2023-02-04T01:37:20.305Z,101939.94
2023-02-04T01:40:21.770Z,101939.94
2023-02-04T01:43:23.888Z,101945.22
2023-02-04T01:46:25.424Z,101936.47
2023-02-04T01:49:27.053Z,101945.25
2023-02-04T01:52:35.108Z,101945.25
2023-02-04T01:55:36.524Z,101949.66
2023-02-04T01:58:37.978Z,101949.72
2023-02-04T02:01:44.650Z,101955.91
2023-02-04T02:04:46.176Z,101962.94
2023-02-04T02:07:49.271Z,101955.00
2023-02-04T02:10:50.715Z,101954.09
2023-02-04T02:13:52.619Z,101966.41
2023-02-04T02:16:54.097Z,101968.09
2023-02-04T02:19:55.662Z,101968.13
2023-02-04T02:23:26.900Z,101971.69
2023-02-04T02:26:28.639Z,101976.06
2023-02-04T02:29:30.238Z,101971.69
2023-02-04T02:32:32.122Z,101970.84
2023-02-04T02:35:34.047Z,101973.50
2023-02-04T02:38:35.662Z,101986.66
2023-02-04T02:41:37.215Z,101986.66
2023-02-04T02:44:38.718Z,101988.44
2023-02-04T02:47:40.228Z,101984.03
2023-02-04T02:50:42.657Z,101990.16
2023-02-04T02:53:46.910Z,101995.34
2023-02-04T02:56:48.546Z,101985.72
2023-02-04T02:59:50.112Z,101997.09
2023-02-04T03:03:01.943Z,101995.28
2023-02-04T03:06:12.475Z,102004.94
2023-02-04T03:09:14.128Z,102008.41
2023-02-04T03:12:15.696Z,102003.19
2023-02-04T03:15:17.371Z,102011.06
2023-02-04T03:18:21.402Z,102000.56
2023-02-04T03:21:22.804Z,102009.31
2023-02-04T03:24:24.737Z,102010.22
2023-02-04T03:27:26.199Z,102013.69
2023-02-04T03:30:27.867Z,102018.94
2023-02-04T03:33:31.325Z,102024.97
2023-02-04T03:36:32.774Z,102021.44
2023-02-04T03:39:34.147Z,102019.66
2023-02-04T03:42:35.619Z,102021.47
2023-02-04T03:45:44.993Z,102034.56
2023-02-04T03:48:47.199Z,102039.78
2023-02-04T03:51:48.577Z,102045.91
2023-02-04T03:54:49.965Z,102045.91
2023-02-04T03:57:51.847Z,102043.31
2023-02-04T04:00:53.413Z,102048.56
2023-02-04T04:03:54.858Z,102059.91
2023-02-04T04:06:56.310Z,102063.41
2023-02-04T04:09:57.738Z,102076.47
2023-02-04T04:12:59.137Z,102075.56
2023-02-04T04:16:00.634Z,102068.53
2023-02-04T04:19:02.064Z,102069.34
2023-02-04T04:22:03.472Z,102068.47
2023-02-04T04:25:05.755Z,102050.16
2023-02-04T04:28:07.158Z,102060.66
2023-02-04T04:31:08.942Z,102075.50
2023-02-04T04:34:11.080Z,102089.47
2023-02-04T04:37:12.476Z,102083.38
2023-02-04T04:40:14.090Z,102092.09
2023-02-04T04:43:15.551Z,102090.34
2023-02-04T04:46:16.949Z,102078.97
2023-02-04T04:49:18.431Z,102079.00
2023-02-04T04:52:19.805Z,102096.47
2023-02-04T04:55:21.209Z,102097.41
2023-02-04T04:58:22.594Z,102096.47
2023-02-04T05:01:24.028Z,102096.50
2023-02-04T05:04:25.431Z,102104.38
2023-02-04T05:07:27.602Z,102109.63
2023-02-04T05:10:29.212Z,102107.84
2023-02-04T05:13:30.876Z,102100.84
2023-02-04T05:16:32.307Z,102098.22
2023-02-04T05:19:33.747Z,102098.28
2023-02-04T05:22:35.120Z,102100.09
2023-02-04T05:25:36.512Z,102107.09
2023-02-04T05:28:37.887Z,102099.16
2023-02-04T05:31:39.335Z,102100.88
2023-02-04T05:34:40.833Z,102103.47
2023-02-04T05:37:42.218Z,102102.56
2023-02-04T05:40:43.601Z,102116.53
2023-02-04T05:43:44.973Z,102120.97
2023-02-04T05:46:46.506Z,102125.34
2023-02-04T05:49:47.897Z,102127.19
2023-02-04T05:52:49.281Z,102138.47
2023-02-04T05:55:50.668Z,102138.53
2023-02-04T05:58:52.062Z,102148.16
2023-02-04T06:01:53.497Z,102157.66
2023-02-04T06:04:55.601Z,102158.41
2023-02-04T06:07:57.050Z,102161.88
2023-02-04T06:10:58.443Z,102161.88
2023-02-04T06:13:59.820Z,102167.97
2023-02-04T06:17:01.237Z,102174.13
2023-02-04T06:20:02.644Z,102175.06
2023-02-04T06:23:04.178Z,102179.47
2023-02-04T06:26:06.222Z,102193.50
2023-02-04T06:29:07.642Z,102190.88
2023-02-04T06:32:09.016Z,102193.56
2023-02-04T06:35:12.924Z,102204.06
2023-02-04T06:38:14.490Z,102205.81
2023-02-04T06:41:15.886Z,102195.22
2023-02-04T06:44:17.254Z,102209.19
2023-02-04T06:47:18.854Z,102224.88
2023-02-04T06:50:20.380Z,102210.00
2023-02-04T06:53:21.803Z,102208.25
2023-02-04T06:56:23.289Z,102210.88
2023-02-04T06:59:26.045Z,102216.97
2023-02-04T07:02:27.460Z,102226.53
2023-02-04T07:05:28.879Z,102219.53
2023-02-04T07:08:30.255Z,102228.28
2023-02-04T07:11:31.664Z,102232.69
2023-02-04T07:14:33.205Z,102235.28
2023-02-04T07:17:34.610Z,102229.09
2023-02-04T07:20:36.145Z,102232.66
2023-02-04T07:23:37.581Z,102240.53
2023-02-04T07:26:38.976Z,102258.03
2023-02-04T07:29:40.394Z,102265.00
2023-02-04T07:32:41.783Z,102259.81
2023-02-04T07:35:44.262Z,102258.09
2023-02-04T07:38:45.646Z,102259.00
2023-02-04T07:41:47.059Z,102258.19
2023-02-04T07:44:55.434Z,102271.25
2023-02-04T07:47:56.810Z,102278.28
2023-02-04T07:50:58.201Z,102290.59
2023-02-04T07:54:00.707Z,102289.78
2023-02-04T07:57:02.079Z,102299.38
2023-02-04T08:00:04.742Z,102306.47
2023-02-04T08:03:14.143Z,102303.88
2023-02-04T08:06:15.650Z,102303.94
2023-02-04T08:09:17.058Z,102304.88
2023-02-04T08:12:18.475Z,102305.75
2023-02-04T08:15:19.889Z,102320.69
2023-02-04T08:18:21.283Z,102320.72
2023-02-04T08:21:22.707Z,102313.78
2023-02-04T08:24:24.071Z,102319.16
2023-02-04T08:27:25.558Z,102321.69
2023-02-04T08:30:26.981Z,102318.25
2023-02-04T08:33:28.340Z,102328.72
2023-02-04T08:36:29.892Z,102326.09
2023-02-04T08:39:32.783Z,102322.56
2023-02-04T08:42:34.793Z,102329.59
2023-02-04T08:45:36.312Z,102343.63
2023-02-04T08:48:37.711Z,102349.84
2023-02-04T08:51:39.108Z,102353.31
2023-02-04T08:54:40.605Z,102355.09
2023-02-04T08:57:42.011Z,102369.13
2023-02-04T09:00:44.014Z,102366.56
2023-02-04T09:03:45.579Z,102372.72
2023-02-04T09:06:47.516Z,102371.91
2023-02-04T09:09:49.184Z,102371.97
2023-02-04T09:12:55.836Z,102389.63
2023-02-04T09:15:57.339Z,102387.72
2023-02-04T09:18:59.143Z,102384.16
2023-02-04T09:22:00.655Z,102388.63
2023-02-04T09:25:02.055Z,102387.75
2023-02-04T09:28:03.672Z,102385.16
2023-02-04T09:31:06.428Z,102382.53
2023-02-04T09:34:08.291Z,102389.63
2023-02-04T09:37:09.666Z,102383.53
2023-02-04T09:40:17.279Z,102402.03
2023-02-04T09:43:26.152Z,102395.13
2023-02-04T09:46:31.148Z,102393.25
2023-02-04T09:49:33.010Z,102395.94
2023-02-04T09:52:34.420Z,102395.13
2023-02-04T09:55:39.043Z,102393.38
2023-02-04T09:58:41.405Z,102396.84
2023-02-04T10:01:43.058Z,102392.50
2023-02-04T10:04:44.547Z,102396.09
2023-02-04T10:07:48.892Z,102411.06
2023-02-04T10:10:50.379Z,102417.19
2023-02-04T10:13:54.232Z,102419.88
2023-02-04T10:16:59.480Z,102421.53
2023-02-04T10:20:01.237Z,102431.88
2023-02-04T10:23:02.656Z,102425.81
2023-02-04T10:26:04.467Z,102418.84
2023-02-04T10:29:09.780Z,102416.28
2023-02-04T10:32:32.069Z,102428.50
2023-02-04T10:35:45.915Z,102430.19
2023-02-04T10:38:59.665Z,102426.63
2023-02-04T10:42:01.497Z,102422.25
2023-02-04T10:45:03.695Z,102433.72
2023-02-04T10:48:05.504Z,102433.81
2023-02-04T10:51:12.688Z,102429.41
2023-02-04T10:54:33.711Z,102424.28
2023-02-04T10:57:39.106Z,102417.28
2023-02-04T11:00:40.995Z,102415.50
2023-02-04T11:03:43.497Z,102412.09
2023-02-04T11:06:44.972Z,102406.91
2023-02-04T11:09:48.633Z,102410.44
2023-02-04T11:12:53.244Z,102414.81
2023-02-04T11:16:11.954Z,102408.63
2023-02-04T11:19:14.539Z,102414.00
2023-02-04T11:22:41.989Z,102406.91
2023-02-04T11:25:43.756Z,102407.72
2023-02-04T11:28:45.067Z,102412.94
2023-02-04T11:31:49.544Z,102420.75
2023-02-04T11:34:52.864Z,102413.75
2023-02-04T11:37:56.028Z,102414.63
2023-02-04T11:40:58.085Z,102406.72
2023-02-04T11:43:59.544Z,102413.69
2023-02-04T11:47:02.787Z,102419.84
2023-02-04T11:50:14.051Z,102419.81
2023-02-04T11:53:15.606Z,102416.31
2023-02-04T11:56:21.335Z,102422.44
2023-02-04T11:59:22.723Z,102423.44
2023-02-04T12:02:28.105Z,102406.91
2023-02-04T12:05:40.815Z,102405.19
2023-02-04T12:08:42.215Z,102404.31
2023-02-04T12:11:54.530Z,102397.25
2023-02-04T12:15:13.586Z,102407.75
2023-02-04T12:18:16.655Z,102403.31
2023-02-04T12:21:19.306Z,102406.00
2023-02-04T12:24:21.041Z,102407.84
2023-02-04T12:27:22.957Z,102406.03
2023-02-04T12:30:26.211Z,102408.69
2023-02-04T12:33:27.648Z,102407.78
2023-02-04T12:36:29.702Z,102409.50
2023-02-04T12:39:31.997Z,102412.97
2023-02-04T12:42:33.428Z,102415.53
2023-02-04T12:45:35.002Z,102420.75
2023-02-04T12:48:40.844Z,102419.03
2023-02-04T12:51:42.304Z,102428.72
2023-02-04T12:54:43.915Z,102426.16
2023-02-04T12:57:45.470Z,102422.78
2023-02-04T13:00:46.854Z,102421.84
2023-02-04T13:03:48.276Z,102428.84
2023-02-04T13:06:50.021Z,102411.09
2023-02-04T13:09:52.236Z,102410.84
2023-02-04T13:12:53.643Z,102415.34
2023-02-04T13:15:55.040Z,102405.75
2023-02-04T13:18:56.495Z,102416.22
2023-02-04T13:21:58.769Z,102419.56
2023-02-04T13:25:00.395Z,102418.69
2023-02-04T13:28:02.504Z,102418.94
2023-02-04T13:31:04.584Z,102419.94
2023-02-04T13:34:06.134Z,102422.66
2023-02-04T13:37:07.525Z,102418.31
2023-02-04T13:40:11.060Z,102424.50
2023-02-04T13:43:12.460Z,102421.00
2023-02-04T13:46:14.130Z,102419.28
2023-02-04T13:49:15.713Z,102420.13
2023-02-04T13:52:18.347Z,102429.81
2023-02-04T13:55:19.750Z,102435.06
2023-02-04T13:58:21.130Z,102433.34
2023-02-04T14:01:22.598Z,102434.16
2023-02-04T14:04:24.006Z,102440.28
2023-02-04T14:07:25.617Z,102428.94
2023-02-04T14:10:27.061Z,102436.84
2023-02-04T14:13:28.447Z,102432.44
2023-02-04T14:16:29.867Z,102440.31
2023-02-04T14:19:31.281Z,102442.94
2023-02-04T14:22:32.657Z,102433.28
2023-02-04T14:25:34.107Z,102437.66
2023-02-04T14:28:35.644Z,102438.59
2023-02-04T14:31:37.468Z,102437.69
2023-02-04T14:34:39.040Z,102431.47
2023-02-04T14:37:40.639Z,102432.44
2023-02-04T14:40:44.847Z,102435.97
2023-02-04T14:43:47.785Z,102439.47
2023-02-04T14:46:49.343Z,102445.63
2023-02-04T14:49:50.726Z,102447.31
2023-02-04T14:52:52.365Z,102441.16
2023-02-04T14:55:53.807Z,102441.16
2023-02-04T14:58:55.277Z,102436.75
2023-02-04T15:01:56.721Z,102437.66
2023-02-04T15:04:58.099Z,102442.00
2023-02-04T15:08:00.146Z,102444.63
2023-02-04T15:11:01.591Z,102445.53
2023-02-04T15:14:03.776Z,102441.13
2023-02-04T15:17:05.329Z,102448.19
2023-02-04T15:20:08.461Z,102446.38
2023-02-04T15:23:12.983Z,102460.41
2023-02-04T15:26:14.580Z,102455.97
2023-02-04T15:29:16.001Z,102462.09
2023-02-04T15:32:17.386Z,102462.97
2023-02-04T15:35:19.451Z,102461.19
2023-02-04T15:38:20.873Z,102462.94
2023-02-04T15:41:23.363Z,102466.44
2023-02-04T15:44:26.565Z,102469.03
2023-02-04T15:47:28.079Z,102464.63
2023-02-04T15:50:31.227Z,102476.91
2023-02-04T15:53:34.663Z,102480.41
2023-02-04T15:56:36.043Z,102478.63
2023-02-04T15:59:37.477Z,102475.13
2023-02-04T16:02:38.875Z,102482.09
2023-02-04T16:05:40.290Z,102483.00
2023-02-04T16:08:41.674Z,102488.22
2023-02-04T16:11:43.064Z,102484.69
2023-02-04T16:14:44.499Z,102493.44
2023-02-04T16:17:45.930Z,102487.31
2023-02-04T16:20:47.318Z,102501.22
2023-02-04T16:23:48.696Z,102502.91
2023-02-04T16:26:50.157Z,102500.22
2023-02-04T16:29:51.536Z,102509.75
2023-02-04T16:32:52.940Z,102512.38
2023-02-04T16:35:59.366Z,102525.50
2023-02-04T16:39:02.739Z,102532.47
2023-02-04T16:42:08.795Z,102528.84
2023-02-04T16:45:10.650Z,102535.84
2023-02-04T16:48:12.035Z,102533.22
2023-02-04T16:51:13.434Z,102535.84
2023-02-04T16:54:14.798Z,102530.50
2023-02-04T16:57:16.787Z,102546.16
2023-02-04T17:00:18.567Z,102548.72
2023-02-04T17:03:20.156Z,102547.78
2023-02-04T17:06:21.559Z,102547.88
2023-02-04T17:09:23.001Z,102556.69
2023-02-04T17:12:24.554Z,102560.13
2023-02-04T17:15:26.012Z,102560.03
2023-02-04T17:18:28.902Z,102559.94
2023-02-04T17:21:30.658Z,102556.31
2023-02-04T17:24:32.021Z,102554.53
2023-02-04T17:27:33.406Z,102558.00
2023-02-04T17:30:34.838Z,102552.44
2023-02-04T17:33:36.280Z,102564.78
2023-02-04T17:36:38.537Z,102558.53
2023-02-04T17:39:39.954Z,102563.69
2023-02-04T17:42:41.404Z,102568.00
2023-02-04T17:45:42.859Z,102565.28
2023-02-04T17:48:44.707Z,102562.63
2023-02-04T17:51:46.114Z,102568.72
2023-02-04T17:54:47.520Z,102564.22
2023-02-04T17:57:49.391Z,102565.00
2023-02-04T18:00:52.086Z,102573.69
2023-02-04T18:03:53.628Z,102568.28
2023-02-04T18:06:55.168Z,102564.66
2023-02-04T18:10:18.020Z,102582.06
2023-02-04T18:13:23.351Z,102583.78
2023-02-04T18:16:27.497Z,102584.69
2023-02-04T18:19:36.834Z,102584.69
2023-02-04T18:22:38.211Z,102579.38
2023-02-04T18:25:39.583Z,102575.06
2023-02-04T18:28:43.925Z,102579.47
2023-02-04T18:31:54.463Z,102579.44
2023-02-04T18:34:57.543Z,102579.44
2023-02-04T18:37:59.002Z,102582.16
2023-02-04T18:41:27.493Z,102586.50
2023-02-04T18:44:33.282Z,102586.59
2023-02-04T18:47:35.831Z,102589.22
2023-02-04T18:50:37.507Z,102599.78
2023-02-04T18:53:39.912Z,102596.34
2023-02-04T18:56:41.354Z,102597.25
2023-02-04T18:59:42.938Z,102595.59
2023-02-04T19:02:51.573Z,102602.56
2023-02-04T19:05:55.329Z,102592.91
2023-02-04T19:09:02.417Z,102581.56
2023-02-04T19:12:22.433Z,102585.09
2023-02-04T19:15:39.535Z,102587.56
2023-02-04T19:18:42.486Z,102590.19
2023-02-04T19:21:43.872Z,102589.34
2023-02-04T19:24:46.535Z,102591.88
2023-02-04T19:27:54.906Z,102592.75
2023-02-04T19:31:04.781Z,102598.84
2023-02-04T19:34:33.743Z,102598.84
2023-02-04T19:37:40.992Z,102592.75
2023-02-04T19:40:43.142Z,102604.09
2023-02-04T19:43:44.514Z,102598.78
2023-02-04T19:46:45.949Z,102585.72
2023-02-04T19:49:47.410Z,102593.53
2023-02-04T19:52:52.377Z,102584.06
2023-02-04T19:55:54.226Z,102595.31
2023-02-04T19:58:57.744Z,102587.41
2023-02-04T20:02:08.022Z,102589.16
2023-02-04T20:05:17.872Z,102588.28
2023-02-04T20:08:41.600Z,102586.44
2023-02-04T20:12:16.031Z,102592.34
2023-02-04T20:15:23.411Z,102587.81
2023-02-04T20:18:28.153Z,102591.22
2023-02-04T20:21:29.559Z,102591.16
2023-02-04T20:24:37.708Z,102606.78
2023-02-04T20:27:41.510Z,102608.44
2023-02-04T20:30:43.708Z,102616.41
2023-02-04T20:33:49.119Z,102605.00
2023-02-04T20:36:52.161Z,102613.69
2023-02-04T20:39:54.382Z,102611.06
2023-02-04T20:43:12.064Z,102618.19
2023-02-04T20:46:21.733Z,102625.91
2023-02-04T20:49:25.760Z,102641.56
2023-02-04T20:52:47.471Z,102624.09
2023-02-04T20:56:03.936Z,102634.63
2023-02-04T20:59:11.725Z,102643.22
2023-02-04T21:02:21.955Z,102647.69
2023-02-04T21:05:26.764Z,102655.66
2023-02-04T21:08:33.305Z,102654.84
2023-02-04T21:11:34.725Z,102648.75
2023-02-04T21:14:36.297Z,102650.53
2023-02-04T21:17:37.731Z,102654.78
2023-02-04T21:20:39.131Z,102655.66
2023-02-04T21:23:40.786Z,102658.34
2023-02-04T21:26:42.548Z,102669.59
2023-02-04T21:29:43.911Z,102664.44
2023-02-04T21:32:45.383Z,102660.16
2023-02-04T21:35:46.864Z,102667.09
2023-02-04T21:38:48.293Z,102656.50
2023-02-04T21:42:09.731Z,102662.63
2023-02-04T21:45:11.118Z,102659.06
2023-02-04T21:48:12.671Z,102654.63
2023-02-04T21:51:14.893Z,102649.22
2023-02-04T21:54:16.266Z,102650.00
2023-02-04T21:57:17.646Z,102650.16
2023-02-04T22:00:23.538Z,102643.94
2023-02-04T22:03:25.006Z,102645.63
2023-02-04T22:06:26.729Z,102648.19
2023-02-04T22:09:28.122Z,102643.09
2023-02-04T22:12:29.541Z,102630.94
2023-02-04T22:15:31.163Z,102638.72
2023-02-04T22:18:32.712Z,102644.63
2023-02-04T22:21:36.125Z,102641.81
2023-02-04T22:24:37.691Z,102636.56
2023-02-04T22:27:39.470Z,102637.53
2023-02-04T22:30:40.990Z,102636.66
2023-02-04T22:33:42.522Z,102635.63
2023-02-04T22:36:43.984Z,102639.94
2023-02-04T22:39:45.363Z,102651.22
2023-02-04T22:42:46.783Z,102652.97
2023-02-04T22:45:48.181Z,102648.66
2023-02-04T22:48:49.596Z,102651.25
2023-02-04T22:51:51.003Z,102653.97
2023-02-04T22:54:53.208Z,102645.09
2023-02-04T22:57:54.595Z,102642.44
2023-02-04T23:00:56.080Z,102638.88
2023-02-04T23:03:57.684Z,102640.59
2023-02-04T23:07:00.681Z,102643.16
2023-02-04T23:10:02.075Z,102642.13
2023-02-04T23:13:03.566Z,102645.63
2023-02-04T23:16:05.284Z,102643.84
2023-02-04T23:19:06.702Z,102651.53
2023-02-04T23:22:09.392Z,102649.75
2023-02-04T23:25:10.855Z,102646.13
2023-02-04T23:28:12.884Z,102647.81
2023-02-04T23:31:14.327Z,102647.81
2023-02-04T23:34:15.756Z,102642.44
2023-02-04T23:37:17.149Z,102637.06
2023-02-04T23:40:18.589Z,102643.91
2023-02-04T23:43:19.972Z,102653.63
2023-02-04T23:46:21.479Z,102648.91
2023-02-04T23:49:22.917Z,102651.44
2023-02-04T23:52:24.316Z,102660.13
2023-02-04T23:55:25.736Z,102646.94
2023-02-04T23:58:27.309Z,102645.00
